Time;durP1;ratioP1;P1;durP2;ratioP2;P2;SDS_P1;SDS_P2;PMS_P1;PMS_P2;Temp;Humidity;BMP_temperature;BMP_pressure;BME280_temperature;BME280_humidity;BME280_pressure;Samples;Min_cycle;Max_cycle;Signal;HPM_P1;HPM_P2
2022/08/21 00:02:36;;;;;;;1999.90;999.90;;;;;;;13.99;80.49;99422.28;9995963;23;20490;-76
2022/08/21 00:06:38;;;;;;;1999.90;999.90;;;;;;;13.96;80.98;99409.31;9998988;23;20037;-76
2022/08/21 00:10:41;;;;;;;1999.90;999.90;;;;;;;13.93;80.32;99410.22;10024468;23;20026;-76
2022/08/21 00:14:43;;;;;;;1999.90;999.90;;;;;;;13.87;80.12;99407.72;10023724;23;20593;-76
2022/08/21 00:18:46;;;;;;;1999.90;999.90;;;;;;;13.80;80.79;99408.72;10018074;23;20426;-76
2022/08/21 00:22:49;;;;;;;1999.90;999.90;;;;;;;13.76;81.70;99417.47;10022539;23;20029;-76
2022/08/21 00:26:51;;;;;;;;;;;;;;;13.72;81.17;99415.81;9999830;23;20019;-76
2022/08/21 00:30:52;;;;;;;1999.90;999.90;;;;;;;13.60;81.37;99411.66;9974018;23;20286;-76
2022/08/21 00:34:54;;;;;;;1999.90;999.90;;;;;;;13.61;81.14;99410.75;10022522;23;20046;-76
2022/08/21 00:38:56;;;;;;;1999.90;999.90;;;;;;;13.57;81.57;99411.72;10021332;23;20597;-76
2022/08/21 00:42:58;;;;;;;1999.90;999.90;;;;;;;13.54;82.43;99411.75;10022500;23;20070;-76
2022/08/21 00:47:00;;;;;;;1999.90;999.90;;;;;;;13.55;82.39;99410.88;10019773;23;20482;-76
2022/08/21 00:51:09;;;;;;;1999.90;999.90;;;;;;;13.43;82.17;99411.91;10022157;23;20054;-76
2022/08/21 00:55:12;;;;;;;1999.90;999.90;;;;;;;13.37;81.74;99413.78;10022652;23;20118;-76
2022/08/21 00:59:17;;;;;;;1999.90;999.90;;;;;;;13.34;82.09;99413.81;10022941;23;20019;-76
2022/08/21 01:03:22;;;;;;;1999.90;999.90;;;;;;;13.29;82.82;99411.28;10019077;23;20747;-76
2022/08/21 01:07:24;;;;;;;1999.90;999.90;;;;;;;13.26;83.63;99417.38;10024641;23;20069;-75
2022/08/21 01:11:28;;;;;;;1999.90;999.90;;;;;;;13.21;83.77;99421.81;10028669;23;20433;-76
2022/08/21 01:15:33;;;;;;;1999.90;999.90;;;;;;;13.14;83.13;99430.59;10046846;23;20106;-76
2022/08/21 01:19:35;;;;;;;1999.90;999.90;;;;;;;13.14;83.16;99427.97;10026950;23;20030;-76
2022/08/21 01:23:39;;;;;;;1999.90;999.90;;;;;;;13.18;83.28;99418.41;10027877;23;20051;-75
2022/08/21 01:27:40;;;;;;;1999.90;999.90;;;;;;;13.16;83.35;99412.31;10026258;23;20054;-75
2022/08/21 01:31:42;;;;;;;1999.90;999.90;;;;;;;13.00;84.08;99406.47;10023266;23;20114;-76
2022/08/21 01:35:44;;;;;;;1999.90;999.90;;;;;;;13.00;84.01;99409.94;10043278;23;20073;-76
2022/08/21 01:39:46;;;;;;;1999.90;999.90;;;;;;;12.97;84.46;99407.38;10027730;23;20386;-76
2022/08/21 01:43:48;;;;;;;1999.90;999.90;;;;;;;12.92;84.81;99413.50;10003288;23;20023;-76
2022/08/21 01:47:50;;;;;;;1999.90;999.90;;;;;;;12.88;84.62;99415.28;10027740;23;20038;-76
2022/08/21 01:51:51;;;;;;;1999.90;999.90;;;;;;;12.86;84.71;99411.00;10027558;23;20060;-75
2022/08/21 01:55:53;;;;;;;1999.90;999.90;;;;;;;12.76;84.24;99407.66;10044000;23;20019;-76
2022/08/21 01:59:55;;;;;;;1999.90;999.90;;;;;;;12.74;84.69;99406.78;10001652;23;20532;-76
2022/08/21 02:03:56;;;;;;;1999.90;999.90;;;;;;;12.72;84.54;99395.53;10002444;23;20131;-76
2022/08/21 02:07:58;;;;;;;1999.90;999.90;;;;;;;12.69;85.57;99403.38;10033721;23;20029;-76
2022/08/21 02:12:00;;;;;;;1999.90;999.90;;;;;;;12.65;85.03;99394.75;10033020;23;20493;-76
2022/08/21 02:16:01;;;;;;;1999.90;999.90;;;;;;;12.61;84.90;99398.28;9980196;23;20054;-76
2022/08/21 02:20:04;;;;;;;1999.90;999.90;;;;;;;12.54;85.12;99401.84;10032437;23;20461;-76
2022/08/21 02:24:07;;;;;;;1999.90;999.90;;;;;;;12.48;85.91;99395.84;10034107;23;20054;-76
2022/08/21 02:28:13;;;;;;;1999.90;999.90;;;;;;;12.46;85.63;99395.00;10031894;23;20034;-76
2022/08/21 02:32:14;;;;;;;1999.90;999.90;;;;;;;12.39;85.39;99384.69;10048334;23;20062;-77
2022/08/21 02:36:16;;;;;;;1999.90;999.90;;;;;;;12.34;86.27;99391.66;10047295;23;20023;-76
2022/08/21 02:40:21;;;;;;;1999.90;999.90;;;;;;;12.31;86.55;99383.88;9983001;23;20759;-76
2022/08/21 02:44:22;;;;;;;1999.90;999.90;;;;;;;12.26;85.97;99387.44;10007349;23;20014;-76
2022/08/21 02:48:36;;;;;;;1999.90;999.90;;;;;;;12.24;86.25;99374.44;10025971;23;20034;-76
2022/08/21 02:52:38;;;;;;;1999.90;999.90;;;;;;;12.17;86.04;99385.78;10032280;23;20054;-76
2022/08/21 02:56:39;;;;;;;1999.90;999.90;;;;;;;12.05;86.13;99383.31;10007015;23;20111;-76
2022/08/21 03:00:41;;;;;;;1999.90;999.90;;;;;;;12.03;86.74;99383.34;10027395;23;20069;-76
2022/08/21 03:04:43;;;;;;;1999.90;999.90;;;;;;;12.03;86.85;99383.34;10002939;23;20019;-76
2022/08/21 03:08:47;;;;;;;1999.90;999.90;;;;;;;12.08;87.13;99373.75;10025769;23;20457;-76
2022/08/21 03:12:49;;;;;;;1999.90;999.90;;;;;;;12.09;86.94;99378.06;10001310;23;20113;-76
2022/08/21 03:16:50;;;;;;;1999.90;999.90;;;;;;;12.09;87.38;99378.06;10022696;23;20042;-76
2022/08/21 03:20:52;;;;;;;1999.90;999.90;;;;;;;12.09;87.14;99372.00;10026658;23;20023;-76
2022/08/21 03:24:54;;;;;;;1999.90;999.90;;;;;;;12.03;86.95;99369.47;9978385;23;20720;-76
2022/08/21 03:28:57;;;;;;;1999.90;999.90;;;;;;;11.97;87.55;99364.31;10026688;23;20584;-76
2022/08/21 03:32:59;;;;;;;1999.90;999.90;;;;;;;11.92;87.48;99368.72;10021208;23;20050;-76
2022/08/21 03:37:01;;;;;;;1999.90;999.90;;;;;;;11.89;87.38;99371.34;10001546;23;20521;-75
2022/08/21 03:41:04;;;;;;;1999.90;999.90;;;;;;;11.88;87.19;99383.50;10026704;23;20446;-76
2022/08/21 03:45:07;;;;;;;1999.90;999.90;;;;;;;11.79;87.22;99378.38;9998340;23;20019;-76
2022/08/21 03:49:09;;;;;;;1999.90;999.90;;;;;;;11.79;87.41;99376.63;10025038;23;20030;-76
2022/08/21 03:53:11;;;;;;;1999.90;999.90;;;;;;;11.76;87.17;99376.63;10026464;23;20018;-76
2022/08/21 03:57:18;;;;;;;1999.90;999.90;;;;;;;11.73;87.60;99381.00;10026057;23;20033;-76
2022/08/21 04:01:19;;;;;;;1999.90;999.90;;;;;;;11.69;87.48;99387.13;9996747;23;20110;-76
2022/08/21 04:05:27;;;;;;;1999.90;999.90;;;;;;;11.68;87.91;99385.38;10000996;23;20077;-76
2022/08/21 04:09:29;;;;;;;1999.90;999.90;;;;;;;11.66;88.08;99389.72;10023397;23;20022;-76
2022/08/21 04:13:31;;;;;;;1999.90;999.90;;;;;;;11.59;87.50;99391.53;9998630;23;20500;-76
2022/08/21 04:17:32;;;;;;;1999.90;999.90;;;;;;;11.59;87.42;99399.31;9974583;23;20034;-77
2022/08/21 04:21:36;;;;;;;1999.90;999.90;;;;;;;11.55;87.54;99400.22;10004466;23;20031;-77
2022/08/21 04:25:39;;;;;;;1999.90;999.90;;;;;;;11.52;87.50;99408.06;10004992;23;20018;-77
2022/08/21 04:29:40;;;;;;;1999.90;999.90;;;;;;;11.51;87.33;99406.34;10004220;23;20023;-77
2022/08/21 04:33:42;;;;;;;1999.90;999.90;;;;;;;11.51;87.54;99406.34;10029429;23;20029;-77
2022/08/21 04:37:44;;;;;;;1999.90;999.90;;;;;;;11.50;87.56;99405.47;10002892;23;20250;-77
2022/08/21 04:41:46;;;;;;;1999.90;999.90;;;;;;;11.45;87.88;99407.22;10003937;23;20023;-78
2022/08/21 04:45:48;;;;;;;1999.90;999.90;;;;;;;11.44;88.05;99410.69;10041577;23;20752;-77
2022/08/21 04:49:50;;;;;;;1999.90;999.90;;;;;;;11.42;88.31;99414.19;10007502;23;20053;-77
2022/08/21 04:54:00;;;;;;;1999.90;999.90;;;;;;;11.41;87.55;99421.13;10034677;23;20054;-77
2022/08/21 04:58:02;;;;;;;1999.90;999.90;;;;;;;11.40;87.88;99421.16;10008476;23;20548;-77
2022/08/21 05:02:05;;;;;;;1999.90;999.90;;;;;;;11.38;88.48;99428.09;10029414;23;20030;-77
2022/08/21 05:06:10;;;;;;;1999.90;999.90;;;;;;;11.40;88.76;99418.53;10025943;23;20050;-76
2022/08/21 05:10:13;;;;;;;1999.90;999.90;;;;;;;11.49;88.86;99428.88;10033193;23;20386;-76
2022/08/21 05:14:15;;;;;;;1999.90;999.90;;;;;;;11.56;89.07;99422.75;10009133;23;20039;-76
2022/08/21 05:18:17;;;;;;;1999.90;999.90;;;;;;;11.69;89.40;99431.34;10028674;23;20027;-77
2022/08/21 05:22:24;;;;;;;1999.90;999.90;;;;;;;11.79;88.76;99435.59;10034776;23;20403;-76
2022/08/21 05:26:25;;;;;;;1999.90;999.90;;;;;;;11.93;88.27;99431.13;10032335;23;20806;-77
2022/08/21 05:30:27;;;;;;;1999.90;999.90;;;;;;;12.09;87.96;99435.31;10028513;23;20057;-76
2022/08/21 05:34:28;;;;;;;1999.90;999.90;;;;;;;12.23;87.74;99435.19;10008892;23;20061;-77
2022/08/21 05:38:30;;;;;;;1999.90;999.90;;;;;;;12.40;86.78;99440.22;10008441;23;20541;-77
2022/08/21 05:42:31;;;;;;;1999.90;999.90;;;;;;;12.56;86.63;99433.06;10033958;23;20065;-76
2022/08/21 05:46:33;;;;;;;1999.90;999.90;;;;;;;12.74;85.41;99435.44;10003302;23;20806;-76
2022/08/21 05:50:36;;;;;;;1999.90;999.90;;;;;;;13.63;83.19;99435.09;10008548;23;20280;-76
2022/08/21 05:54:37;;;;;;;1999.90;999.90;;;;;;;14.54;78.82;99439.59;10006041;23;20109;-77
2022/08/21 05:58:39;;;;;;;1999.90;999.90;;;;;;;15.11;75.45;99437.53;10046447;23;20415;-77
2022/08/21 06:02:41;;;;;;;1999.90;999.90;;;;;;;15.44;73.91;99435.91;10004321;23;20805;-77
2022/08/21 06:06:42;;;;;;;1999.90;999.90;;;;;;;15.63;73.71;99433.75;10010053;23;20019;-76
2022/08/21 06:10:46;;;;;;;1999.90;999.90;;;;;;;15.87;73.16;99430.50;10049045;23;20052;-77
2022/08/21 06:14:48;;;;;;;1999.90;999.90;;;;;;;16.12;72.14;99430.72;10007306;23;20038;-78
2022/08/21 06:18:49;;;;;;;1999.90;999.90;;;;;;;16.43;70.55;99422.06;10002495;23;20031;-77
2022/08/21 06:22:51;;;;;;;1999.90;999.90;;;;;;;16.74;68.93;99424.72;10030090;23;20018;-77
2022/08/21 06:26:53;;;;;;;1999.90;999.90;;;;;;;17.08;68.13;99427.19;10004239;23;20312;-77
2022/08/21 06:30:55;;;;;;;1999.90;999.90;;;;;;;17.44;67.44;99419.94;10004061;23;20049;-77
2022/08/21 06:34:56;;;;;;;1999.90;999.90;;;;;;;17.86;66.77;99419.47;10004628;23;20085;-77
2022/08/21 06:38:58;;;;;;;1999.90;999.90;;;;;;;18.38;65.06;99423.78;10028945;23;20022;-78
2022/08/21 06:43:13;;;;;;;1999.90;999.90;;;;;;;18.79;64.09;99416.19;10026211;23;20038;-77
2022/08/21 06:47:15;;;;;;;1999.90;999.90;;;;;;;18.90;62.67;99408.75;10023622;23;20035;-78
2022/08/21 06:51:17;;;;;;;1999.90;999.90;;;;;;;19.13;62.01;99408.72;10026311;23;20027;-78
2022/08/21 06:55:18;;;;;;;1999.90;999.90;;;;;;;19.42;62.04;99406.72;10026997;23;20023;-77
2022/08/21 06:59:23;;;;;;;1999.90;999.90;;;;;;;19.68;61.68;99397.78;10043942;23;20023;-77
2022/08/21 07:03:33;;;;;;;1999.90;999.90;;;;;;;19.95;60.68;99401.06;10046307;23;20034;-77
2022/08/21 07:07:35;;;;;;;1999.90;999.90;;;;;;;20.32;59.49;99400.31;10041834;23;20031;-77
2022/08/21 07:11:37;;;;;;;1999.90;999.90;;;;;;;20.75;58.49;99408.06;10066521;23;20019;-77
2022/08/21 07:15:48;;;;;;;1999.90;999.90;;;;;;;21.05;56.49;99407.56;10057670;23;20030;-77
2022/08/21 07:19:51;;;;;;;1999.90;999.90;;;;;;;21.22;55.71;99414.69;10002162;23;20050;-75
2022/08/21 07:23:53;;;;;;;1999.90;999.90;;;;;;;21.54;55.60;99406.09;10051275;23;20018;-78
2022/08/21 07:27:55;;;;;;;1999.90;999.90;;;;;;;21.86;54.35;99411.56;10026312;23;20350;-77
2022/08/21 07:31:57;;;;;;;1999.90;999.90;;;;;;;22.09;52.67;99399.88;10021532;23;20026;-77
2022/08/21 07:35:59;;;;;;;1999.90;999.90;;;;;;;22.37;51.44;99401.94;10026819;23;20019;-78
2022/08/21 07:40:00;;;;;;;1999.90;999.90;;;;;;;22.64;50.34;99394.34;10026080;23;20026;-78
2022/08/21 07:44:02;;;;;;;1999.90;999.90;;;;;;;22.87;49.42;99394.81;10043756;23;20142;-78
2022/08/21 07:48:06;;;;;;;1999.90;999.90;;;;;;;23.26;49.40;99387.38;10020263;23;20029;-77
2022/08/21 07:52:08;;;;;;;1999.90;999.90;;;;;;;23.51;48.10;99393.84;10000993;23;20030;-75
2022/08/21 07:56:10;;;;;;;1999.90;999.90;;;;;;;23.71;47.79;99379.50;10043508;23;20030;-77
2022/08/21 08:00:19;;;;;;;1999.90;999.90;;;;;;;24.04;47.23;99386.38;10039506;23;20390;-76
2022/08/21 08:04:21;;;;;;;1999.90;999.90;;;;;;;23.96;45.92;99388.66;10029645;23;20031;-76
2022/08/21 08:08:27;;;;;;;1999.90;999.90;;;;;;;24.07;45.86;99381.78;10027356;23;20054;-77
2022/08/21 08:12:29;;;;;;;1999.90;999.90;;;;;;;24.34;45.90;99384.56;10003248;23;20129;-76
2022/08/21 08:16:30;;;;;;;1999.90;999.90;;;;;;;24.63;44.33;99382.78;10025229;23;20051;-77
2022/08/21 08:20:32;;;;;;;;;;;;;;;24.70;43.29;99380.59;10029095;23;20118;-77
2022/08/21 08:24:39;;;;;;;1999.90;999.90;;;;;;;24.74;42.71;99382.09;10025085;23;19926;-77
2022/08/21 08:28:41;;;;;;;1999.90;999.90;;;;;;;25.00;42.81;99383.16;10048662;23;20026;-77
2022/08/21 08:32:44;;;;;;;1999.90;999.90;;;;;;;25.32;42.42;99381.09;10021563;23;20051;-76
2022/08/21 08:36:46;;;;;;;1999.90;999.90;;;;;;;25.67;43.03;99384.06;10041961;23;20051;-77
2022/08/21 08:41:07;;;;;;;1999.90;999.90;;;;;;;25.90;42.05;99380.78;10041428;23;20054;-77
2022/08/21 08:45:11;;;;;;;;;;;;;;;26.20;41.14;99380.47;9972862;23;20023;-77
2022/08/21 08:49:22;;;;;;;1999.90;999.90;;;;;;;26.45;40.17;99379.66;9999567;23;19945;-77
2022/08/21 08:53:32;;;;;;;;;;;;;;;26.58;38.87;99384.16;10000664;23;20357;-77
2022/08/21 08:57:34;;;;;;;1999.90;999.90;;;;;;;26.84;38.98;99367.16;10026722;23;19921;-77
2022/08/21 09:01:37;;;;;;;1999.90;999.90;;;;;;;27.11;38.92;99364.34;9997220;23;20057;-77
2022/08/21 09:05:48;;;;;;;1999.90;999.90;;;;;;;27.22;36.31;99368.88;10041299;23;20022;-77
2022/08/21 09:10:10;;;;;;;1999.90;999.90;;;;;;;26.95;35.73;99364.56;10000694;23;20043;-76
2022/08/21 09:14:34;;;;;;;1999.90;999.90;;;;;;;26.84;37.18;99368.97;10001778;23;20042;-77
2022/08/21 09:18:59;;;;;;;1999.90;999.90;;;;;;;27.13;36.37;99356.22;9997416;23;20034;-77
2022/08/21 09:23:15;;;;;;;1999.90;999.90;;;;;;;27.03;36.76;99348.88;10024313;23;20396;-76
2022/08/21 09:27:20;;;;;;;1999.90;999.90;;;;;;;27.45;37.27;99349.34;10002039;23;20018;-77
2022/08/21 09:31:27;;;;;;;1999.90;999.90;;;;;;;27.61;36.69;99351.72;10024448;23;20033;-75
2022/08/21 09:35:29;;;;;;;1999.90;999.90;;;;;;;27.72;36.22;99340.28;10029771;23;20442;-77
2022/08/21 09:39:32;;;;;;;;;;;;;;;27.58;34.65;99344.81;10005912;23;20022;-77
2022/08/21 09:43:51;;;;;;;1999.90;999.90;;;;;;;27.65;35.06;99339.91;10007515;23;19961;-77
2022/08/21 09:47:54;;;;;;;1999.90;999.90;;;;;;;27.74;36.01;99341.00;10002943;23;20038;-77
2022/08/21 09:51:58;;;;;;;1999.90;999.90;;;;;;;27.73;36.00;99334.81;9981858;23;20054;-77
2022/08/21 10:00:29;;;;;;;1999.90;999.90;;;;;;;27.87;34.73;99320.44;9999620;23;20027;-77
2022/08/21 10:04:34;;;;;;;1999.90;999.90;;;;;;;27.87;34.89;99323.97;10043245;23;20029;-77
2022/08/21 10:08:38;;;;;;;1999.90;999.90;;;;;;;27.94;33.97;99318.97;10001722;23;20030;-76
2022/08/21 10:12:51;;;;;;;1999.90;999.90;;;;;;;27.85;34.06;99315.22;10039985;23;20050;-77
2022/08/21 10:17:06;;;;;;;1999.90;999.90;;;;;;;27.98;34.01;99310.63;9998714;23;20070;-77
2022/08/21 10:21:26;;;;;;;1999.90;999.90;;;;;;;27.93;33.20;99317.28;10000441;23;20026;-77
2022/08/21 10:25:40;;;;;;;1999.90;999.90;;;;;;;27.99;33.47;99308.78;10001961;23;20030;-77
2022/08/21 10:30:07;;;;;;;1999.90;999.90;;;;;;;28.06;32.24;99307.38;9998587;23;20023;-77
2022/08/21 10:34:35;;;;;;;1999.90;999.90;;;;;;;27.96;32.39;99296.53;9999449;23;20026;-75
2022/08/21 10:38:58;;;;;;;1999.90;999.90;;;;;;;27.74;34.69;99290.31;9978101;23;20730;-75
2022/08/21 10:43:44;;;;;;;1999.90;999.90;;;;;;;28.22;31.87;99283.00;10023825;23;20092;-75
2022/08/21 10:47:56;;;;;;;1999.90;999.90;;;;;;;28.08;32.65;99277.88;9993505;23;20038;-75
2022/08/21 10:52:09;;;;;;;1999.90;999.90;;;;;;;28.39;32.65;99282.53;9998760;23;20082;-76
2022/08/21 10:56:26;;;;;;;1999.90;999.90;;;;;;;28.34;32.50;99275.84;9999770;23;20462;-76
2022/08/21 11:00:38;;;;;;;1999.90;999.90;;;;;;;28.64;32.98;99272.53;9996579;23;20023;-76
2022/08/21 11:05:05;;;;;;;1999.90;999.90;;;;;;;28.50;33.26;99266.47;9999770;23;20022;-76
2022/08/21 11:09:14;;;;;;;1999.90;999.90;;;;;;;28.40;31.76;99262.88;10027251;23;20038;-76
2022/08/21 11:13:38;;;;;;;1999.90;999.90;;;;;;;28.46;31.89;99270.38;10023660;23;20062;-76
2022/08/21 11:18:21;;;;;;;1999.90;999.90;;;;;;;28.47;32.04;99263.22;9972641;23;20383;-75
2022/08/21 11:22:30;;;;;;;1999.90;999.90;;;;;;;28.63;31.67;99261.00;9961330;23;20034;-76
2022/08/21 11:26:41;;;;;;;1999.90;999.90;;;;;;;28.85;30.22;99265.44;10024773;23;20134;-76
2022/08/21 11:31:28;;;;;;;1999.90;999.90;;;;;;;28.74;30.98;99261.00;10017670;23;20363;-76
2022/08/21 11:35:38;;;;;;;1999.90;999.90;;;;;;;28.75;29.99;99257.34;9992008;23;20022;-75
2022/08/21 11:40:02;;;;;;;1999.90;999.90;;;;;;;28.92;29.89;99256.00;10021878;23;20022;-75
2022/08/21 11:44:43;;;;;;;1999.90;999.90;;;;;;;28.91;30.27;99258.81;10025020;23;20022;-75
2022/08/21 11:49:00;;;;;;;1999.90;999.90;;;;;;;28.81;29.10;99248.81;10047745;23;20027;-75
2022/08/21 11:53:10;;;;;;;1999.90;999.90;;;;;;;29.16;30.11;99245.94;10024058;23;20022;-75
2022/08/21 11:57:20;;;;;;;1999.90;999.90;;;;;;;29.28;28.79;99243.22;10047431;23;20046;-75
2022/08/21 12:01:25;;;;;;;1999.90;999.90;;;;;;;29.11;27.83;99231.25;10033722;23;20030;-75
2022/08/21 12:05:32;;;;;;;1999.90;999.90;;;;;;;29.01;27.83;99236.50;10022335;23;20051;-76
2022/08/21 12:09:36;;;;;;;1999.90;999.90;;;;;;;29.31;28.33;99227.75;10025189;23;20105;-75
2022/08/21 12:13:52;;;;;;;1999.90;999.90;;;;;;;29.46;28.17;99226.50;10021449;23;20078;-76
2022/08/21 12:18:03;;;;;;;1999.90;999.90;;;;;;;29.64;27.58;99218.72;10016752;23;20034;-76
2022/08/21 12:22:05;;;;;;;1999.90;999.90;;;;;;;29.70;27.74;99233.41;10025218;23;20022;-75
2022/08/21 12:26:18;;;;;;;1999.90;999.90;;;;;;;29.63;27.30;99230.41;10024121;23;20042;-76
2022/08/21 12:30:36;;;;;;;1999.90;999.90;;;;;;;29.54;28.33;99224.97;10022233;23;20605;-75
2022/08/21 12:34:44;;;;;;;1999.90;999.90;;;;;;;29.50;28.37;99216.38;10025150;23;20529;-75
2022/08/21 12:38:49;;;;;;;1999.90;999.90;;;;;;;29.60;28.74;99211.06;10039457;23;20426;-75
2022/08/21 12:42:57;;;;;;;1999.90;999.90;;;;;;;29.83;27.92;99209.94;9997376;23;20042;-75
2022/08/21 12:47:06;;;;;;;1999.90;999.90;;;;;;;29.77;28.21;99205.94;9994542;23;20027;-75
2022/08/21 12:51:15;;;;;;;1999.90;999.90;;;;;;;30.07;27.67;99198.94;10023661;23;20034;-75
2022/08/21 12:55:27;;;;;;;1999.90;999.90;;;;;;;29.96;27.66;99199.00;9996253;23;20023;-75
2022/08/21 12:59:30;;;;;;;1999.90;999.90;;;;;;;30.15;27.88;99188.38;10024124;23;20391;-75
2022/08/21 13:03:35;;;;;;;1999.90;999.90;;;;;;;30.32;26.99;99186.88;10017488;23;20137;-76
2022/08/21 13:07:38;;;;;;;1999.90;999.90;;;;;;;30.29;26.65;99184.47;10025135;23;20023;-75
2022/08/21 13:11:42;;;;;;;1999.90;999.90;;;;;;;30.04;26.62;99189.34;10041826;23;20022;-75
2022/08/21 13:15:43;;;;;;;1999.90;999.90;;;;;;;30.13;27.06;99179.63;10019429;23;20101;-75
2022/08/21 13:20:00;;;;;;;1999.90;999.90;;;;;;;29.81;26.57;99177.09;10026090;23;20023;-75
2022/08/21 13:24:18;;;;;;;1999.90;999.90;;;;;;;30.07;26.82;99170.31;10024436;23;20552;-75
2022/08/21 13:28:40;;;;;;;1999.90;999.90;;;;;;;29.75;27.04;99169.59;10024758;23;20027;-76
2022/08/21 13:32:49;;;;;;;1999.90;999.90;;;;;;;29.38;26.49;99164.72;9996088;23;20038;-75
2022/08/21 13:37:00;;;;;;;1999.90;999.90;;;;;;;29.44;26.27;99157.97;10023032;23;20097;-74
2022/08/21 13:41:04;;;;;;;;;;;;;;;29.61;26.98;99151.19;10024806;23;20068;-75
2022/08/21 13:45:13;;;;;;;1999.90;999.90;;;;;;;29.63;27.14;99154.63;10022628;23;19921;-74
2022/08/21 13:49:19;;;;;;;1999.90;999.90;;;;;;;29.69;26.88;99144.22;10024034;23;20618;-75
2022/08/21 13:53:31;;;;;;;1999.90;999.90;;;;;;;29.58;26.16;99136.25;10024206;23;20629;-75
2022/08/21 13:57:34;;;;;;;1999.90;999.90;;;;;;;29.50;27.12;99149.47;10025075;23;20026;-74
2022/08/21 14:01:39;;;;;;;1999.90;999.90;;;;;;;29.55;27.50;99141.88;10020835;23;20109;-74
2022/08/21 14:05:46;;;;;;;1999.90;999.90;;;;;;;29.66;27.06;99143.66;10024734;23;20633;-74
2022/08/21 14:09:47;;;;;;;1999.90;999.90;;;;;;;29.80;26.77;99140.59;10026160;23;20023;-74
2022/08/21 14:13:56;;;;;;;1999.90;999.90;;;;;;;29.90;27.21;99135.28;10023611;23;20109;-74
2022/08/21 14:18:15;;;;;;;1999.90;999.90;;;;;;;29.91;26.35;99131.63;10026949;23;20049;-74
2022/08/21 14:22:44;;;;;;;1999.90;999.90;;;;;;;30.15;26.98;99132.13;10026471;23;20033;-74
2022/08/21 14:27:00;;;;;;;1999.90;999.90;;;;;;;30.30;26.57;99135.28;10025401;23;20385;-74
2022/08/21 14:31:20;;;;;;;1999.90;999.90;;;;;;;30.30;26.04;99130.75;10019617;23;20027;-74
2022/08/21 14:35:22;;;;;;;1999.90;999.90;;;;;;;30.08;26.48;99134.53;10023979;23;20027;-74
2022/08/21 14:39:24;;;;;;;1999.90;999.90;;;;;;;29.83;26.32;99118.91;10025565;23;20030;-74
2022/08/21 14:43:27;;;;;;;1999.90;999.90;;;;;;;29.84;26.64;99133.16;10024954;23;20023;-74
2022/08/21 14:47:29;;;;;;;1999.90;999.90;;;;;;;29.84;26.96;99138.50;9994245;23;20121;-74
2022/08/21 14:51:31;;;;;;;1999.90;999.90;;;;;;;29.70;26.52;99124.50;9999915;23;20023;-74
2022/08/21 14:56:04;;;;;;;1999.90;999.90;;;;;;;29.85;26.08;99126.81;10019856;23;20026;-75
2022/08/21 14:59:57;;;;;;;1999.90;999.90;;;;;;;30.11;26.63;99129.88;10021948;23;20122;-74
2022/08/21 15:04:02;;;;;;;1999.90;999.90;;;;;;;30.07;25.13;99115.91;9997724;23;20130;-74
2022/08/21 15:08:04;;;;;;;1999.90;999.90;;;;;;;29.74;25.15;99104.50;9975002;23;20023;-73
2022/08/21 15:12:06;;;;;;;1999.90;999.90;;;;;;;29.70;25.26;99107.59;10039004;23;20105;-73
2022/08/21 15:16:10;;;;;;;1999.90;999.90;;;;;;;29.64;24.98;99108.13;9994708;23;20453;-73
2022/08/21 15:20:12;;;;;;;1999.90;999.90;;;;;;;29.46;25.76;99099.88;10023655;23;20130;-73
2022/08/21 15:24:14;;;;;;;1999.90;999.90;;;;;;;29.59;26.02;99099.66;9998522;23;20237;-73
2022/08/21 15:28:17;;;;;;;1999.90;999.90;;;;;;;29.75;26.03;99100.00;10023537;23;20129;-73
2022/08/21 15:32:25;;;;;;;1999.90;999.90;;;;;;;29.43;25.54;99095.59;10018489;23;20118;-73
2022/08/21 15:36:27;;;;;;;1999.90;999.90;;;;;;;29.26;25.89;99096.22;10022295;23;20019;-73
2022/08/21 15:40:29;;;;;;;1999.90;999.90;;;;;;;29.09;25.98;99089.66;9997823;23;20037;-73
2022/08/21 15:44:30;;;;;;;1999.90;999.90;;;;;;;29.00;27.08;99086.91;9998461;23;20026;-74
2022/08/21 15:48:32;;;;;;;1999.90;999.90;;;;;;;28.94;27.41;99082.09;10017377;23;20133;-74
2022/08/21 15:52:34;;;;;;;1999.90;999.90;;;;;;;28.75;27.68;99082.78;10023115;23;20098;-73
2022/08/21 15:56:38;;;;;;;1999.90;999.90;;;;;;;29.05;28.54;99079.34;10023262;23;20030;-73
2022/08/21 16:00:39;;;;;;;1999.90;999.90;;;;;;;29.34;26.93;99075.00;10017420;23;20019;-74
2022/08/21 16:04:41;;;;;;;1999.90;999.90;;;;;;;29.31;26.88;99080.63;9998787;23;20468;-73
2022/08/21 16:08:42;;;;;;;1999.90;999.90;;;;;;;29.18;27.32;99078.16;10023069;23;20041;-74
2022/08/21 16:12:52;;;;;;;;;;;;;;;29.32;26.98;99070.78;10022331;23;20058;-73
2022/08/21 16:16:55;;;;;;;1999.90;999.90;;;;;;;29.49;26.96;99072.88;10017439;23;19988;-74
2022/08/21 16:20:56;;;;;;;1999.90;999.90;;;;;;;29.24;27.73;99076.78;9997384;23;20050;-74
2022/08/21 16:24:58;;;;;;;1999.90;999.90;;;;;;;28.90;27.96;99070.78;9998960;23;20536;-73
2022/08/21 16:29:02;;;;;;;1999.90;999.90;;;;;;;28.65;28.96;99068.47;9998325;23;20057;-73
2022/08/21 16:33:05;;;;;;;1999.90;999.90;;;;;;;28.42;30.25;99070.41;10023620;23;20080;-73
2022/08/21 16:37:08;;;;;;;1999.90;999.90;;;;;;;28.19;31.32;99061.59;10021927;23;20018;-73
2022/08/21 16:41:13;;;;;;;1999.90;999.90;;;;;;;27.84;30.50;99062.66;9996118;23;20027;-73
2022/08/21 16:45:17;;;;;;;1999.90;999.90;;;;;;;27.48;32.36;99071.75;9993992;23;20388;-73
2022/08/21 16:49:19;;;;;;;1999.90;999.90;;;;;;;27.30;32.50;99063.38;10021280;23;20457;-73
2022/08/21 16:53:20;;;;;;;1999.90;999.90;;;;;;;27.20;31.93;99062.38;10023930;23;20030;-73
2022/08/21 16:57:23;;;;;;;;;;;;;;;27.05;32.19;99058.25;10001110;23;20095;-73
2022/08/21 17:01:28;;;;;;;1999.90;999.90;;;;;;;26.86;32.91;99050.78;10019482;23;19922;-73
2022/08/21 17:05:30;;;;;;;1999.90;999.90;;;;;;;26.75;33.64;99050.75;10025057;23;20050;-73
2022/08/21 17:09:31;;;;;;;1999.90;999.90;;;;;;;26.71;34.70;99051.97;10024184;23;20798;-73
2022/08/21 17:13:33;;;;;;;1999.90;999.90;;;;;;;26.59;34.31;99052.91;10021504;23;20082;-73
2022/08/21 17:17:35;;;;;;;1999.90;999.90;;;;;;;26.47;35.13;99060.84;10018327;23;20035;-73
2022/08/21 17:21:36;;;;;;;;;;;;;;;26.24;39.15;99060.84;9997631;23;20022;-73
2022/08/21 17:25:40;;;;;;;1999.90;999.90;;;;;;;26.02;39.66;99051.75;10020867;23;20152;-73
2022/08/21 17:29:41;;;;;;;1999.90;999.90;;;;;;;25.94;39.17;99061.25;9973717;23;20426;-73
2022/08/21 17:33:50;;;;;;;1999.90;999.90;;;;;;;25.83;38.35;99060.22;10017818;23;20030;-73
2022/08/21 17:37:52;;;;;;;1999.90;999.90;;;;;;;25.68;39.21;99068.47;10013580;23;20524;-73
2022/08/21 17:41:56;;;;;;;1999.90;999.90;;;;;;;25.50;39.81;99062.63;9996377;23;20031;-73
2022/08/21 17:45:58;;;;;;;1999.90;999.90;;;;;;;25.37;41.02;99059.13;9998625;23;20082;-73
2022/08/21 17:50:00;;;;;;;1999.90;999.90;;;;;;;25.21;41.52;99064.66;10022646;23;20023;-72
2022/08/21 17:54:01;;;;;;;;;;;;;;;25.02;41.30;99067.75;10000836;23;20033;-73
2022/08/21 17:58:04;;;;;;;1999.90;999.90;;;;;;;24.78;42.86;99064.09;10021851;23;20313;-73
2022/08/21 18:02:06;;;;;;;1999.90;999.90;;;;;;;24.58;43.65;99066.25;10017264;23;20126;-73
2022/08/21 18:06:20;;;;;;;1999.90;999.90;;;;;;;24.35;42.31;99065.13;10022483;23;20090;-73
2022/08/21 18:10:22;;;;;;;1999.90;999.90;;;;;;;24.02;43.14;99072.59;10022355;23;20114;-73
2022/08/21 18:14:28;;;;;;;1999.90;999.90;;;;;;;23.72;42.99;99073.63;10024777;23;20114;-72